Time;durP1;ratioP1;P1;durP2;ratioP2;P2;SDS_P1;SDS_P2;PMS_P1;PMS_P2;Temp;Humidity;BMP_temperature;BMP_pressure;BME280_temperature;BME280_humidity;BME280_pressure;Samples;Min_cycle;Max_cycle;Signal;HPM_P1;HPM_P2
2022/08/01 00:02:23;;;;;;;4.03;2.63;;;;;;;;;;5067085;28;20028;-75
2022/08/01 00:04:51;;;;;;;2.97;2.22;;;;;;;;;;5085456;28;20314;-73
2022/08/01 00:07:16;;;;;;;3.22;2.60;;;;;;;;;;5079070;28;20020;-76
2022/08/01 00:09:44;;;;;;;6.35;2.63;;;;;;;;;;5072158;28;20319;-77
2022/08/01 00:12:09;;;;;;;4.10;1.90;;;;;;;;;;5077517;28;20058;-75
2022/08/01 00:14:37;;;;;;;3.13;2.42;;;;;;;;;;5081785;28;20399;-77
2022/08/01 00:17:07;;;;;;;3.58;2.25;;;;;;;;;;5081420;28;20112;-76
2022/08/01 00:19:33;;;;;;;4.22;2.45;;;;;;;;;;5077761;28;20020;-76
2022/08/01 00:21:58;;;;;;;4.18;2.58;;;;;;;;;;5073537;28;20063;-76
2022/08/01 00:24:23;;;;;;;5.28;2.70;;;;;;;;;;5081191;28;20039;-75
2022/08/01 00:26:49;;;;;;;3.63;2.30;;;;;;;;;;5090277;28;20038;-74
2022/08/01 00:29:14;;;;;;;3.05;1.98;;;;;;;;;;5073759;28;20035;-75
2022/08/01 00:31:44;;;;;;;3.65;2.53;;;;;;;;;;5084360;28;20039;-75
2022/08/01 00:34:10;;;;;;;4.63;2.97;;;;;;;;;;5082654;28;20028;-75
2022/08/01 00:36:35;;;;;;;4.88;3.67;;;;;;;;;;5079256;28;20037;-78
2022/08/01 00:39:01;;;;;;;4.55;3.10;;;;;;;;;;5077113;28;20066;-75
2022/08/01 00:41:26;;;;;;;5.88;3.83;;;;;;;;;;5072262;28;20041;-77
2022/08/01 00:43:54;;;;;;;4.45;3.08;;;;;;;;;;5075876;28;20031;-76
2022/08/01 00:46:19;;;;;;;4.88;3.38;;;;;;;;;;5077596;28;20028;-77
2022/08/01 00:48:47;;;;;;;4.32;3.25;;;;;;;;;;5079711;28;20447;-77
2022/08/01 00:51:12;;;;;;;4.90;3.53;;;;;;;;;;5079288;28;20031;-77
2022/08/01 00:53:38;;;;;;;6.65;4.38;;;;;;;;;;5068777;28;20349;-76
2022/08/01 00:56:06;;;;;;;4.72;3.83;;;;;;;;;;5072719;28;20036;-76
2022/08/01 00:58:32;;;;;;;9.30;5.63;;;;;;;;;;5081671;28;20032;-76
2022/08/01 01:00:59;;;;;;;6.72;4.80;;;;;;;;;;5085637;28;20097;-77
2022/08/01 01:03:24;;;;;;;5.63;3.22;;;;;;;;;;5072908;28;20051;-75
2022/08/01 01:06:05;;;;;;;8.52;5.05;;;;;;;;;;5078682;28;20109;-75
2022/08/01 01:08:36;;;;;;;5.57;3.50;;;;;;;;;;5094485;28;20031;-75
2022/08/01 01:11:09;;;;;;;5.20;3.22;;;;;;;;;;5068273;28;20085;-75
2022/08/01 01:13:43;;;;;;;7.05;3.97;;;;;;;;;;5072275;28;20037;-74
2022/08/01 01:16:11;;;;;;;5.95;4.40;;;;;;;;;;5071186;28;20035;-74
2022/08/01 01:19:03;;;;;;;5.10;3.50;;;;;;;;;;5074180;28;20020;-73
2022/08/01 01:21:37;;;;;;;6.00;3.53;;;;;;;;;;5076102;28;20043;-73
2022/08/01 01:24:42;;;;;;;5.57;3.63;;;;;;;;;;5077804;28;20036;-75
2022/08/01 01:27:31;;;;;;;5.28;3.58;;;;;;;;;;5044964;28;20063;-75
2022/08/01 01:29:57;;;;;;;8.65;4.90;;;;;;;;;;5051596;28;20082;-77
2022/08/01 01:32:33;;;;;;;6.07;4.00;;;;;;;;;;5075057;28;20476;-75
2022/08/01 01:35:00;;;;;;;7.75;4.18;;;;;;;;;;5063413;28;20032;-75
2022/08/01 01:37:27;;;;;;;9.10;4.22;;;;;;;;;;5087524;28;20029;-75
2022/08/01 01:39:55;;;;;;;7.43;4.68;;;;;;;;;;5077338;28;20024;-76
2022/08/01 01:42:20;;;;;;;6.45;4.38;;;;;;;;;;5088379;28;20027;-75
2022/08/01 01:44:46;;;;;;;5.90;3.10;;;;;;;;;;5090523;28;20350;-76
2022/08/01 01:47:13;;;;;;;9.95;3.75;;;;;;;;;;5082033;28;20032;-75
2022/08/01 01:49:43;;;;;;;4.93;3.63;;;;;;;;;;5074461;28;20035;-75
2022/08/01 01:52:09;;;;;;;4.47;3.10;;;;;;;;;;5079799;28;20020;-76
2022/08/01 01:54:40;;;;;;;5.80;3.67;;;;;;;;;;5086082;28;20111;-75
2022/08/01 01:57:07;;;;;;;6.13;3.67;;;;;;;;;;5073971;28;20043;-75
2022/08/01 01:59:34;;;;;;;9.35;3.50;;;;;;;;;;5082721;28;20129;-76
2022/08/01 02:02:06;;;;;;;5.05;3.40;;;;;;;;;;5071514;28;20532;-74
2022/08/01 02:04:32;;;;;;;5.05;2.45;;;;;;;;;;5075132;28;20031;-75
2022/08/01 02:06:58;;;;;;;5.28;4.07;;;;;;;;;;5057170;28;20116;-76
2022/08/01 02:09:26;;;;;;;4.60;3.03;;;;;;;;;;5079430;28;20063;-75
2022/08/01 02:11:53;;;;;;;4.88;3.83;;;;;;;;;;5076825;28;20040;-76
2022/08/01 02:14:22;;;;;;;5.40;3.78;;;;;;;;;;5086538;28;20025;-75
2022/08/01 02:16:49;;;;;;;4.05;2.88;;;;;;;;;;5078394;28;20024;-74
2022/08/01 02:19:16;;;;;;;7.63;4.38;;;;;;;;;;5076266;28;20036;-75
2022/08/01 02:22:01;;;;;;;5.22;3.78;;;;;;;;;;5075258;28;20508;-74
2022/08/01 02:24:38;;;;;;;7.05;3.53;;;;;;;;;;5062526;28;20028;-74
2022/08/01 02:27:27;;;;;;;4.68;3.53;;;;;;;;;;5090059;28;20032;-74
2022/08/01 02:30:04;;;;;;;12.15;5.00;;;;;;;;;;5071458;28;20626;-73
2022/08/01 02:32:43;;;;;;;8.43;4.93;;;;;;;;;;5085095;28;20036;-74
2022/08/01 02:35:12;;;;;;;9.60;4.60;;;;;;;;;;5081505;28;20384;-73
2022/08/01 02:37:39;;;;;;;6.90;3.90;;;;;;;;;;5078054;28;20563;-72
2022/08/01 02:40:05;;;;;;;6.65;4.22;;;;;;;;;;5076764;28;20115;-73
2022/08/01 02:42:34;;;;;;;13.52;6.38;;;;;;;;;;5073752;28;20051;-73
2022/08/01 02:45:00;;;;;;;5.78;3.63;;;;;;;;;;5079733;28;20044;-73
2022/08/01 02:47:29;;;;;;;7.07;3.85;;;;;;;;;;5084910;28;20027;-73
2022/08/01 02:49:55;;;;;;;7.30;3.95;;;;;;;;;;5092306;28;20077;-73
2022/08/01 02:52:23;;;;;;;8.77;4.85;;;;;;;;;;5075445;28;20099;-72
2022/08/01 02:54:51;;;;;;;7.07;5.25;;;;;;;;;;5088431;28;20070;-76
2022/08/01 02:57:18;;;;;;;6.68;3.88;;;;;;;;;;5078672;28;20035;-76
2022/08/01 02:59:47;;;;;;;8.10;4.70;;;;;;;;;;5091864;28;20044;-75
2022/08/01 03:02:16;;;;;;;10.07;4.95;;;;;;;;;;5075082;28;20054;-76
2022/08/01 03:04:43;;;;;;;8.18;3.80;;;;;;;;;;5075479;28;20058;-76
2022/08/01 03:07:09;;;;;;;9.05;4.80;;;;;;;;;;5073406;28;20035;-77
2022/08/01 03:09:39;;;;;;;12.07;3.58;;;;;;;;;;5079030;28;20035;-76
2022/08/01 03:12:09;;;;;;;6.10;3.92;;;;;;;;;;5085516;28;20038;-74
2022/08/01 03:14:38;;;;;;;8.20;5.22;;;;;;;;;;5059116;28;20441;-74
2022/08/01 03:17:04;;;;;;;9.73;5.03;;;;;;;;;;5082330;28;20054;-75
2022/08/01 03:19:30;;;;;;;5.28;3.38;;;;;;;;;;5079759;28;20051;-74
2022/08/01 03:21:58;;;;;;;8.75;4.05;;;;;;;;;;5075672;28;20375;-73
2022/08/01 03:24:25;;;;;;;6.30;4.28;;;;;;;;;;5072005;28;20021;-73
2022/08/01 03:26:51;;;;;;;28.98;5.60;;;;;;;;;;5077991;28;20020;-74
2022/08/01 03:29:21;;;;;;;7.70;5.03;;;;;;;;;;5080012;28;20020;-75
2022/08/01 03:31:48;;;;;;;6.55;4.70;;;;;;;;;;5087134;28;20028;-74
2022/08/01 03:34:13;;;;;;;6.05;4.18;;;;;;;;;;5074299;28;20096;-73
2022/08/01 03:37:05;;;;;;;8.18;4.32;;;;;;;;;;5091971;28;20469;-74
2022/08/01 03:39:39;;;;;;;9.63;6.05;;;;;;;;;;5075307;28;20040;-72
2022/08/01 03:42:08;;;;;;;5.65;4.05;;;;;;;;;;5055328;28;20086;-71
2022/08/01 03:44:38;;;;;;;8.05;4.13;;;;;;;;;;5076549;28;20039;-71
2022/08/01 03:47:05;;;;;;;6.07;4.30;;;;;;;;;;5085170;28;20020;-72
2022/08/01 03:49:37;;;;;;;4.20;3.25;;;;;;;;;;5087982;28;20024;-72
2022/08/01 03:52:04;;;;;;;10.13;4.85;;;;;;;;;;5084228;28;20036;-72
2022/08/01 03:54:33;;;;;;;4.85;2.65;;;;;;;;;;5090602;28;20455;-72
2022/08/01 03:56:59;;;;;;;6.00;3.35;;;;;;;;;;5082016;28;20020;-71
2022/08/01 03:59:25;;;;;;;6.68;4.90;;;;;;;;;;5062907;28;20044;-72
2022/08/01 04:01:51;;;;;;;6.05;4.03;;;;;;;;;;5073875;28;20116;-72
2022/08/01 04:04:16;;;;;;;8.77;4.68;;;;;;;;;;5072816;28;20050;-73
2022/08/01 04:06:44;;;;;;;5.13;3.75;;;;;;;;;;5075339;28;20548;-72
2022/08/01 04:09:10;;;;;;;7.03;4.05;;;;;;;;;;5072620;28;20028;-72
2022/08/01 04:11:35;;;;;;;8.02;4.03;;;;;;;;;;5075117;28;20089;-73
2022/08/01 04:14:01;;;;;;;6.65;3.47;;;;;;;;;;5081629;28;20028;-72
2022/08/01 04:16:26;;;;;;;4.47;3.03;;;;;;;;;;5082731;28;20028;-73
2022/08/01 04:18:54;;;;;;;4.47;2.65;;;;;;;;;;5075885;28;20031;-73
2022/08/01 04:21:23;;;;;;;6.15;2.90;;;;;;;;;;5079567;28;20452;-73
2022/08/01 04:23:49;;;;;;;6.32;4.68;;;;;;;;;;5074028;28;20078;-72
2022/08/01 04:26:15;;;;;;;6.22;3.75;;;;;;;;;;5074068;28;20032;-73
2022/08/01 04:28:42;;;;;;;4.57;3.15;;;;;;;;;;5078089;28;20032;-73
2022/08/01 04:31:11;;;;;;;3.90;3.00;;;;;;;;;;5076010;28;20033;-73
2022/08/01 04:33:41;;;;;;;7.97;3.83;;;;;;;;;;5082914;28;20032;-74
2022/08/01 04:36:06;;;;;;;4.93;3.58;;;;;;;;;;5075510;28;20472;-73
2022/08/01 04:38:36;;;;;;;6.50;2.38;;;;;;;;;;5071727;28;20028;-73
2022/08/01 04:41:07;;;;;;;5.22;3.20;;;;;;;;;;5079236;28;20052;-74
2022/08/01 04:43:34;;;;;;;4.30;2.45;;;;;;;;;;5069495;28;20048;-73
2022/08/01 04:46:03;;;;;;;3.40;2.10;;;;;;;;;;5080491;28;20035;-73
2022/08/01 04:48:29;;;;;;;5.72;3.10;;;;;;;;;;5075514;28;20119;-74
2022/08/01 04:50:57;;;;;;;4.13;2.25;;;;;;;;;;5062651;28;20102;-73
2022/08/01 04:53:22;;;;;;;7.03;2.90;;;;;;;;;;5092100;28;20044;-74
2022/08/01 04:55:50;;;;;;;3.33;2.28;;;;;;;;;;5080370;28;20349;-73
2022/08/01 04:58:15;;;;;;;7.22;3.42;;;;;;;;;;5087120;28;20029;-74
2022/08/01 05:00:41;;;;;;;5.35;2.53;;;;;;;;;;5077015;28;20029;-74
2022/08/01 05:03:06;;;;;;;4.97;2.40;;;;;;;;;;5081799;28;20036;-74
2022/08/01 05:05:32;;;;;;;5.60;3.45;;;;;;;;;;5077896;28;20113;-73
2022/08/01 05:07:57;;;;;;;4.93;3.20;;;;;;;;;;5074625;28;20078;-74
2022/08/01 05:10:28;;;;;;;3.55;2.60;;;;;;;;;;5061490;28;20111;-74
2022/08/01 05:12:56;;;;;;;3.67;2.33;;;;;;;;;;5088696;28;20461;-74
2022/08/01 05:15:24;;;;;;;5.32;2.40;;;;;;;;;;5082296;28;20028;-74
2022/08/01 05:17:51;;;;;;;5.57;3.58;;;;;;;;;;5078485;28;20035;-74
2022/08/01 05:20:16;;;;;;;4.90;3.90;;;;;;;;;;5077956;28;20028;-74
2022/08/01 05:22:45;;;;;;;5.53;2.63;;;;;;;;;;5087899;28;20031;-74
2022/08/01 05:25:15;;;;;;;4.60;2.92;;;;;;;;;;5079582;28;20464;-73
2022/08/01 05:27:40;;;;;;;6.57;3.20;;;;;;;;;;5086295;28;20021;-72
2022/08/01 05:30:14;;;;;;;5.97;3.00;;;;;;;;;;5082588;28;20039;-73
2022/08/01 05:32:40;;;;;;;4.28;2.53;;;;;;;;;;5077196;28;20048;-74
2022/08/01 05:35:11;;;;;;;4.07;2.17;;;;;;;;;;5095869;28;20459;-74
2022/08/01 05:37:38;;;;;;;3.75;2.45;;;;;;;;;;5085909;28;20029;-73
2022/08/01 05:40:05;;;;;;;4.35;2.72;;;;;;;;;;5080185;28;20368;-73
2022/08/01 05:42:30;;;;;;;6.15;2.35;;;;;;;;;;5084452;28;20052;-73
2022/08/01 05:44:58;;;;;;;4.93;2.25;;;;;;;;;;5083305;28;20416;-73
2022/08/01 05:47:26;;;;;;;3.25;2.17;;;;;;;;;;5087395;28;20340;-73
2022/08/01 05:49:51;;;;;;;3.22;2.78;;;;;;;;;;5096194;28;20038;-74
2022/08/01 05:52:16;;;;;;;2.85;1.75;;;;;;;;;;5087676;28;20020;-73
2022/08/01 05:54:44;;;;;;;5.55;2.92;;;;;;;;;;5092599;28;20068;-73
2022/08/01 05:57:09;;;;;;;2.13;1.20;;;;;;;;;;5076412;28;20033;-74
2022/08/01 05:59:35;;;;;;;4.20;2.08;;;;;;;;;;5074731;28;20098;-74
2022/08/01 06:02:02;;;;;;;4.43;2.38;;;;;;;;;;5076711;28;20025;-73
2022/08/01 06:04:28;;;;;;;4.35;2.17;;;;;;;;;;5072089;28;20056;-74
2022/08/01 06:06:53;;;;;;;2.90;1.88;;;;;;;;;;5082223;28;20066;-73
2022/08/01 06:09:18;;;;;;;3.28;1.85;;;;;;;;;;5076064;28;20070;-74
2022/08/01 06:11:44;;;;;;;2.65;1.92;;;;;;;;;;5077706;28;20025;-74
2022/08/01 06:14:15;;;;;;;3.58;2.25;;;;;;;;;;5086961;28;20104;-74
2022/08/01 06:16:40;;;;;;;4.78;3.42;;;;;;;;;;5076498;28;20020;-73
2022/08/01 06:19:05;;;;;;;2.50;1.83;;;;;;;;;;5083714;28;20340;-73
2022/08/01 06:21:36;;;;;;;1.38;1.23;;;;;;;;;;5075699;28;20035;-74
2022/08/01 06:24:03;;;;;;;3.10;1.55;;;;;;;;;;5081590;28;20082;-74
2022/08/01 06:26:29;;;;;;;3.22;2.17;;;;;;;;;;5079978;28;20457;-74
2022/08/01 06:28:54;;;;;;;6.53;2.95;;;;;;;;;;5076216;28;20058;-73
2022/08/01 06:31:19;;;;;;;3.75;2.70;;;;;;;;;;5078891;28;20021;-74
2022/08/01 06:33:47;;;;;;;3.45;2.38;;;;;;;;;;5075150;28;20044;-73
2022/08/01 06:36:14;;;;;;;2.67;1.52;;;;;;;;;;5072181;28;20025;-75
2022/08/01 06:38:39;;;;;;;3.53;2.63;;;;;;;;;;5081331;28;20145;-75
2022/08/01 06:41:05;;;;;;;3.85;2.28;;;;;;;;;;5078294;28;20107;-74
2022/08/01 06:43:31;;;;;;;3.65;2.33;;;;;;;;;;5072987;28;20032;-74
2022/08/01 06:45:56;;;;;;;4.63;2.75;;;;;;;;;;5071636;28;20568;-75
2022/08/01 06:48:22;;;;;;;5.32;3.15;;;;;;;;;;5078445;28;20036;-74
2022/08/01 06:50:47;;;;;;;5.65;3.03;;;;;;;;;;5077519;28;20035;-75
2022/08/01 06:53:13;;;;;;;3.92;2.70;;;;;;;;;;5075234;28;20032;-74
2022/08/01 06:55:38;;;;;;;3.63;1.75;;;;;;;;;;5079551;28;20020;-75
2022/08/01 06:58:04;;;;;;;2.63;1.85;;;;;;;;;;5084572;28;20215;-74
2022/08/01 07:00:29;;;;;;;2.90;1.73;;;;;;;;;;5072630;28;20389;-74
2022/08/01 07:02:56;;;;;;;3.78;2.00;;;;;;;;;;5073168;28;20081;-75
2022/08/01 07:05:22;;;;;;;6.57;2.70;;;;;;;;;;5081576;28;20039;-75
2022/08/01 07:07:50;;;;;;;3.05;2.33;;;;;;;;;;5081388;28;20017;-75
2022/08/01 07:10:18;;;;;;;3.80;2.13;;;;;;;;;;5076629;28;20056;-75
2022/08/01 07:12:46;;;;;;;6.88;2.28;;;;;;;;;;5076476;28;20047;-75
2022/08/01 07:15:12;;;;;;;4.72;2.80;;;;;;;;;;5077680;28;20028;-75
2022/08/01 07:17:41;;;;;;;4.13;2.45;;;;;;;;;;5076212;28;20434;-74
2022/08/01 07:20:09;;;;;;;3.22;1.40;;;;;;;;;;5088289;28;20111;-76
2022/08/01 07:22:39;;;;;;;2.00;1.52;;;;;;;;;;5076233;28;20021;-75
2022/08/01 07:25:05;;;;;;;3.13;2.42;;;;;;;;;;5071846;28;20033;-75
2022/08/01 07:27:31;;;;;;;1.92;1.30;;;;;;;;;;5078566;28;20056;-74
2022/08/01 07:29:56;;;;;;;6.07;2.65;;;;;;;;;;5072784;28;20395;-75
2022/08/01 07:32:21;;;;;;;2.83;1.65;;;;;;;;;;5074158;28;20666;-76
2022/08/01 07:34:47;;;;;;;1.45;1.30;;;;;;;;;;5082652;28;20107;-75
2022/08/01 07:37:12;;;;;;;1.60;1.33;;;;;;;;;;5084825;28;20105;-75
2022/08/01 07:39:40;;;;;;;3.20;1.23;;;;;;;;;;5089498;28;20020;-74
2022/08/01 07:42:05;;;;;;;2.80;1.40;;;;;;;;;;5091363;28;20052;-75
2022/08/01 07:44:31;;;;;;;1.08;0.90;;;;;;;;;;5078542;28;20048;-75
2022/08/01 07:46:56;;;;;;;2.60;1.45;;;;;;;;;;5077708;28;20141;-75
2022/08/01 07:49:21;;;;;;;2.65;1.45;;;;;;;;;;5074740;28;20082;-74
2022/08/01 07:51:47;;;;;;;2.95;1.80;;;;;;;;;;5065130;28;20032;-75
2022/08/01 07:54:12;;;;;;;2.13;1.33;;;;;;;;;;5070648;28;20032;-76
2022/08/01 07:56:38;;;;;;;1.75;1.05;;;;;;;;;;5073595;28;20064;-75
2022/08/01 07:59:08;;;;;;;0.70;0.70;;;;;;;;;;5072019;28;20028;-76
2022/08/01 08:01:35;;;;;;;0.82;0.60;;;;;;;;;;5074363;28;20028;-76
2022/08/01 08:04:03;;;;;;;2.22;0.80;;;;;;;;;;5079345;28;20042;-77
2022/08/01 08:06:35;;;;;;;1.23;0.85;;;;;;;;;;5083448;28;20038;-76
2022/08/01 08:09:33;;;;;;;1.20;0.85;;;;;;;;;;5063063;28;20032;-76
2022/08/01 08:11:58;;;;;;;0.88;0.68;;;;;;;;;;5080559;28;20155;-76
2022/08/01 08:14:30;;;;;;;1.55;0.90;;;;;;;;;;5075194;28;20103;-76
2022/08/01 08:16:58;;;;;;;2.50;1.05;;;;;;;;;;5078016;28;20121;-76
2022/08/01 08:19:38;;;;;;;0.60;0.40;;;;;;;;;;5058172;28;20102;-74
2022/08/01 08:22:09;;;;;;;1.77;0.70;;;;;;;;;;5081556;28;20105;-76
2022/08/01 08:24:36;;;;;;;1.55;0.60;;;;;;;;;;5074471;28;20025;-75
2022/08/01 08:27:04;;;;;;;0.95;0.60;;;;;;;;;;5073894;28;20050;-76
2022/08/01 08:29:32;;;;;;;0.75;0.30;;;;;;;;;;5074077;28;20050;-75
2022/08/01 08:31:58;;;;;;;0.65;0.60;;;;;;;;;;5073386;28;20042;-77
2022/08/01 08:34:26;;;;;;;0.73;0.57;;;;;;;;;;5074595;28;20032;-75
2022/08/01 08:37:16;;;;;;;0.77;0.77;;;;;;;;;;5075074;28;20020;-75
2022/08/01 08:39:42;;;;;;;0.30;0.30;;;;;;;;;;5081872;28;20358;-77
2022/08/01 08:42:09;;;;;;;1.48;1.10;;;;;;;;;;5070241;28;20103;-76
2022/08/01 08:44:34;;;;;;;0.65;0.60;;;;;;;;;;5076935;28;20020;-75
2022/08/01 08:47:06;;;;;;;0.22;0.20;;;;;;;;;;5078611;28;20452;-75
2022/08/01 08:49:31;;;;;;;;;;;;;;;;;;5073766;28;20021;-76
2022/08/01 08:52:03;;;;;;;0.65;0.43;;;;;;;;;;5076722;28;20427;-75
2022/08/01 08:54:32;;;;;;;1.13;0.50;;;;;;;;;;5074775;28;20390;-75
2022/08/01 08:56:59;;;;;;;1.65;0.60;;;;;;;;;;5070983;28;20032;-74
2022/08/01 08:59:24;;;;;;;0.45;0.40;;;;;;;;;;5070539;28;20024;-76
2022/08/01 09:01:50;;;;;;;0.85;0.43;;;;;;;;;;5076705;28;20104;-75
2022/08/01 09:04:15;;;;;;;0.22;0.20;;;;;;;;;;5080525;28;20036;-76
2022/08/01 09:06:41;;;;;;;0.25;0.25;;;;;;;;;;5078131;28;20035;-75
2022/08/01 09:09:08;;;;;;;0.60;0.20;;;;;;;;;;5075468;28;20032;-75
2022/08/01 09:11:34;;;;;;;0.60;0.55;;;;;;;;;;5077393;28;20086;-87
2022/08/01 09:14:10;;;;;;;0.30;0.30;;;;;;;;;;5056776;28;20111;-84
2022/08/01 09:16:41;;;;;;;0.40;0.30;;;;;;;;;;5072555;28;20017;-87
2022/08/01 09:19:34;;;;;;;0.70;0.43;;;;;;;;;;5075615;28;20044;-87
2022/08/01 09:22:03;;;;;;;0.38;0.38;;;;;;;;;;5065577;28;20028;-87
2022/08/01 09:24:32;;;;;;;0.30;0.30;;;;;;;;;;5077920;28;20025;-87
2022/08/01 09:27:03;;;;;;;0.73;0.65;;;;;;;;;;5073838;28;20017;-88
2022/08/01 09:29:31;;;;;;;;;;;;;;;;;;5064967;28;20028;-88
2022/08/01 09:31:59;;;;;;;0.20;0.20;;;;;;;;;;5088161;28;20348;-92
2022/08/01 09:34:27;;;;;;;1.27;0.77;;;;;;;;;;5078378;28;20024;-88
2022/08/01 09:36:57;;;;;;;0.50;0.40;;;;;;;;;;5078066;28;20028;-86
2022/08/01 09:39:31;;;;;;;0.52;0.38;;;;;;;;;;5058632;28;20028;-89
2022/08/01 09:41:58;;;;;;;0.32;0.30;;;;;;;;;;5080005;28;20333;-86
2022/08/01 09:44:44;;;;;;;0.88;0.47;;;;;;;;;;5085365;28;20035;-84
2022/08/01 09:47:10;;;;;;;0.30;0.30;;;;;;;;;;5078028;28;20024;-89
2022/08/01 09:49:38;;;;;;;0.98;0.47;;;;;;;;;;5079209;28;20020;-87
2022/08/01 09:52:14;;;;;;;0.50;0.40;;;;;;;;;;5088233;28;20043;-86
2022/08/01 09:54:41;;;;;;;0.40;0.40;;;;;;;;;;5087955;28;20020;-89
2022/08/01 09:57:17;;;;;;;0.70;0.43;;;;;;;;;;5084405;28;20104;-87
2022/08/01 09:59:45;;;;;;;0.22;0.20;;;;;;;;;;5096118;28;20016;-88
2022/08/01 10:02:15;;;;;;;0.40;0.10;;;;;;;;;;5096696;28;20334;-84
2022/08/01 10:04:51;;;;;;;0.10;0.10;;;;;;;;;;5079759;28;20058;-89
2022/08/01 10:07:17;;;;;;;0.40;0.40;;;;;;;;;;5078589;28;20044;-90
2022/08/01 10:09:43;;;;;;;0.25;0.20;;;;;;;;;;5077944;28;20031;-90
2022/08/01 10:12:09;;;;;;;0.80;0.50;;;;;;;;;;5077406;28;20032;-89
2022/08/01 10:14:36;;;;;;;0.32;0.15;;;;;;;;;;5081977;28;20020;-89
2022/08/01 10:17:01;;;;;;;0.60;0.43;;;;;;;;;;5090519;28;20036;-90
2022/08/01 10:19:28;;;;;;;0.32;0.30;;;;;;;;;;5072605;28;20028;-89
2022/08/01 10:21:55;;;;;;;0.43;0.43;;;;;;;;;;5098147;28;20100;-86
2022/08/01 10:24:21;;;;;;;0.57;0.57;;;;;;;;;;5087359;28;20487;-89
2022/08/01 10:26:54;;;;;;;0.50;0.43;;;;;;;;;;5083066;28;20040;-88
2022/08/01 10:29:21;;;;;;;0.50;0.43;;;;;;;;;;5083090;28;20027;-84
2022/08/01 10:31:47;;;;;;;0.68;0.30;;;;;;;;;;5101010;28;20028;-82
2022/08/01 10:34:17;;;;;;;0.35;0.35;;;;;;;;;;5081463;28;20028;-83
2022/08/01 10:39:51;;;;;;;0.13;0.13;;;;;;;;;;5075955;28;20575;-83
2022/08/01 10:42:19;;;;;;;1.48;0.70;;;;;;;;;;5078574;28;20054;-88
2022/08/01 10:44:47;;;;;;;0.32;0.32;;;;;;;;;;5076932;28;20026;-81
2022/08/01 10:47:20;;;;;;;1.00;0.25;;;;;;;;;;5078337;28;20482;-91
2022/08/01 10:49:58;;;;;;;2.85;0.65;;;;;;;;;;5088335;28;20055;-91
2022/08/01 10:52:24;;;;;;;0.20;0.20;;;;;;;;;;5078923;28;20029;-86
2022/08/01 10:55:02;;;;;;;0.20;0.17;;;;;;;;;;5095982;28;20033;-89
2022/08/01 10:57:49;;;;;;;0.22;0.20;;;;;;;;;;5070642;28;20342;-84
2022/08/01 11:00:39;;;;;;;0.45;0.40;;;;;;;;;;5077764;28;20063;-86
2022/08/01 11:03:04;;;;;;;0.70;0.50;;;;;;;;;;5051362;28;20031;-85
2022/08/01 11:05:36;;;;;;;0.20;0.20;;;;;;;;;;5059849;28;20024;-87
2022/08/01 11:08:21;;;;;;;0.63;0.40;;;;;;;;;;5072382;28;20408;-86
2022/08/01 11:10:49;;;;;;;0.40;0.28;;;;;;;;;;5078168;28;20028;-87
2022/08/01 11:14:00;;;;;;;0.75;0.50;;;;;;;;;;5092258;28;20474;-87
2022/08/01 11:16:30;;;;;;;0.40;0.30;;;;;;;;;;5075154;28;20044;-87
2022/08/01 11:18:55;;;;;;;0.45;0.40;;;;;;;;;;5076712;28;20028;-87
2022/08/01 11:21:23;;;;;;;0.32;0.32;;;;;;;;;;5080557;28;20024;-86
2022/08/01 11:23:53;;;;;;;0.20;0.20;;;;;;;;;;5074918;28;20027;-86
2022/08/01 11:26:21;;;;;;;0.45;0.22;;;;;;;;;;5076355;28;20039;-83
2022/08/01 11:29:10;;;;;;;0.57;0.30;;;;;;;;;;5084056;28;20024;-86
2022/08/01 11:31:38;;;;;;;1.15;0.80;;;;;;;;;;5075584;28;20024;-85
2022/08/01 11:34:04;;;;;;;1.17;0.88;;;;;;;;;;5079851;28;20044;-86
2022/08/01 11:36:32;;;;;;;0.30;0.30;;;;;;;;;;5080536;28;20016;-86
2022/08/01 11:38:57;;;;;;;0.73;0.32;;;;;;;;;;5083171;28;20048;-86
2022/08/01 11:41:30;;;;;;;0.43;0.35;;;;;;;;;;5080659;28;20075;-86
2022/08/01 11:43:58;;;;;;;1.45;0.15;;;;;;;;;;5054482;28;20017;-83
2022/08/01 11:47:02;;;;;;;0.10;0.10;;;;;;;;;;5085950;28;20089;-85
2022/08/01 11:49:45;;;;;;;0.52;0.32;;;;;;;;;;5081906;28;20024;-94
2022/08/01 11:52:29;;;;;;;0.38;0.38;;;;;;;;;;5067410;28;20024;-86
2022/08/01 11:55:06;;;;;;;0.10;0.10;;;;;;;;;;5081586;28;20043;-87
2022/08/01 11:57:36;;;;;;;0.30;0.15;;;;;;;;;;5089841;28;20031;-88
2022/08/01 12:00:09;;;;;;;0.10;0.10;;;;;;;;;;5078781;28;20459;-89
2022/08/01 12:02:38;;;;;;;0.13;0.13;;;;;;;;;;5076733;28;20038;-91
2022/08/01 12:05:09;;;;;;;0.25;0.25;;;;;;;;;;5084136;28;20048;-85
2022/08/01 12:08:01;;;;;;;0.25;0.25;;;;;;;;;;5073503;28;20024;-92
2022/08/01 12:10:32;;;;;;;0.10;0.10;;;;;;;;;;5064551;28;20023;-86
2022/08/01 12:13:03;;;;;;;0.28;0.20;;;;;;;;;;5054153;28;20028;-85
2022/08/01 12:15:36;;;;;;;0.13;0.13;;;;;;;;;;5072950;28;20433;-86
2022/08/01 12:18:05;;;;;;;0.65;0.40;;;;;;;;;;5076988;28;20028;-86
2022/08/01 12:20:35;;;;;;;0.63;0.63;;;;;;;;;;5042288;28;20024;-84
2022/08/01 12:23:02;;;;;;;0.20;0.20;;;;;;;;;;5061514;28;20433;-83
2022/08/01 12:25:28;;;;;;;0.32;0.20;;;;;;;;;;5075309;28;20030;-83
2022/08/01 12:27:59;;;;;;;0.20;0.20;;;;;;;;;;5072494;28;20020;-83
2022/08/01 12:30:28;;;;;;;0.38;0.35;;;;;;;;;;5079205;28;20081;-82
2022/08/01 12:32:54;;;;;;;0.38;0.38;;;;;;;;;;5067877;28;20042;-85
2022/08/01 12:35:26;;;;;;;0.20;0.20;;;;;;;;;;5074371;28;20430;-82
2022/08/01 12:37:57;;;;;;;0.30;0.30;;;;;;;;;;5069856;28;20034;-81
2022/08/01 12:40:25;;;;;;;6.35;3.78;;;;;;;;;;5080419;28;20080;-81
2022/08/01 12:42:56;;;;;;;4.45;2.33;;;;;;;;;;5069531;28;20028;-81
2022/08/01 12:45:25;;;;;;;2.15;1.95;;;;;;;;;;5070349;28;20024;-80
2022/08/01 12:47:52;;;;;;;0.20;0.20;;;;;;;;;;5068576;28;20090;-81
2022/08/01 12:50:20;;;;;;;0.65;0.65;;;;;;;;;;5073488;28;20024;-81
2022/08/01 12:52:46;;;;;;;0.60;0.50;;;;;;;;;;5074849;28;20477;-81
2022/08/01 12:55:19;;;;;;;0.47;0.45;;;;;;;;;;5085760;28;20441;-82
2022/08/01 12:57:51;;;;;;;0.28;0.20;;;;;;;;;;5075928;28;20029;-82
2022/08/01 13:00:25;;;;;;;0.35;0.35;;;;;;;;;;5077564;28;20029;-82
2022/08/01 13:03:02;;;;;;;0.30;0.30;;;;;;;;;;5072954;28;20472;-82
2022/08/01 13:05:28;;;;;;;0.45;0.28;;;;;;;;;;5079670;28;20363;-82
2022/08/01 13:07:53;;;;;;;0.50;0.50;;;;;;;;;;5078383;28;20058;-80
2022/08/01 13:10:29;;;;;;;0.70;0.52;;;;;;;;;;5075336;28;20055;-82
2022/08/01 13:12:59;;;;;;;0.32;0.32;;;;;;;;;;5081671;28;20319;-80
2022/08/01 13:15:31;;;;;;;0.38;0.32;;;;;;;;;;5075057;28;20021;-80
2022/08/01 13:17:58;;;;;;;0.10;0.10;;;;;;;;;;5074393;28;20063;-82
2022/08/01 13:20:26;;;;;;;0.10;0.10;;;;;;;;;;5086431;28;20035;-81
2022/08/01 13:22:51;;;;;;;0.10;0.10;;;;;;;;;;5088984;28;20020;-80
2022/08/01 13:25:17;;;;;;;0.15;0.10;;;;;;;;;;5080689;28;20047;-82
2022/08/01 13:27:43;;;;;;;0.57;0.40;;;;;;;;;;5081768;28;20031;-82
2022/08/01 13:30:26;;;;;;;0.22;0.13;;;;;;;;;;5083327;28;20081;-81
2022/08/01 13:32:58;;;;;;;0.20;0.20;;;;;;;;;;5088492;28;20024;-81
2022/08/01 13:35:24;;;;;;;;;;;;;;;;;;5077063;28;20039;-81
2022/08/01 13:37:49;;;;;;;0.10;0.10;;;;;;;;;;5085032;28;20329;-82
2022/08/01 13:40:26;;;;;;;3.60;0.20;;;;;;;;;;5075747;28;20294;-81
2022/08/01 13:42:51;;;;;;;0.30;0.30;;;;;;;;;;5087253;28;20500;-80
2022/08/01 13:45:16;;;;;;;0.43;0.30;;;;;;;;;;5080984;28;20099;-83
2022/08/01 13:47:42;;;;;;;0.20;0.15;;;;;;;;;;5078091;28;20013;-83
2022/08/01 13:50:10;;;;;;;0.30;0.30;;;;;;;;;;5083091;28;20024;-82
2022/08/01 13:52:36;;;;;;;0.40;0.40;;;;;;;;;;5091517;28;20024;-80
2022/08/01 13:55:02;;;;;;;1.50;0.25;;;;;;;;;;5085256;28;20111;-82
2022/08/01 13:57:28;;;;;;;0.30;0.30;;;;;;;;;;5081426;28;20028;-83
2022/08/01 13:59:59;;;;;;;0.20;0.20;;;;;;;;;;5071382;28;20106;-83
2022/08/01 14:02:25;;;;;;;0.10;0.10;;;;;;;;;;5083574;28;20381;-82
2022/08/01 14:04:50;;;;;;;0.52;0.50;;;;;;;;;;5092343;28;20028;-80
2022/08/01 14:07:15;;;;;;;0.50;0.50;;;;;;;;;;5087255;28;20361;-82
2022/08/01 14:09:41;;;;;;;0.40;0.40;;;;;;;;;;5092090;28;20071;-83
2022/08/01 14:12:07;;;;;;;0.20;0.20;;;;;;;;;;5061954;28;20021;-82
2022/08/01 14:14:32;;;;;;;0.30;0.30;;;;;;;;;;5078829;28;20111;-81
2022/08/01 14:17:00;;;;;;;0.40;0.40;;;;;;;;;;5072438;28;20381;-82
2022/08/01 14:19:28;;;;;;;0.20;0.20;;;;;;;;;;5075737;28;20445;-83
2022/08/01 14:21:53;;;;;;;0.30;0.30;;;;;;;;;;5083020;28;20502;-81
2022/08/01 14:24:20;;;;;;;0.28;0.28;;;;;;;;;;5081404;28;20032;-82
2022/08/01 14:26:46;;;;;;;0.22;0.22;;;;;;;;;;5083113;28;20476;-81
2022/08/01 14:29:11;;;;;;;0.40;0.40;;;;;;;;;;5072271;28;20024;-83
2022/08/01 14:31:36;;;;;;;0.55;0.25;;;;;;;;;;5087102;28;20062;-83
2022/08/01 14:34:02;;;;;;;0.30;0.30;;;;;;;;;;5077624;28;20043;-82
2022/08/01 14:36:27;;;;;;;0.20;0.20;;;;;;;;;;5072037;28;20020;-83
2022/08/01 14:38:53;;;;;;;0.20;0.20;;;;;;;;;;5054652;28;20383;-83
2022/08/01 14:41:20;;;;;;;0.15;0.15;;;;;;;;;;5063437;28;20044;-82
2022/08/01 14:43:48;;;;;;;0.50;0.38;;;;;;;;;;5080138;28;20024;-83
2022/08/01 14:46:16;;;;;;;0.22;0.22;;;;;;;;;;5080066;28;20039;-83
2022/08/01 14:48:43;;;;;;;0.30;0.30;;;;;;;;;;5075213;28;20017;-83
2022/08/01 14:51:09;;;;;;;0.40;0.40;;;;;;;;;;5072836;28;20441;-82
2022/08/01 14:53:36;;;;;;;0.20;0.20;;;;;;;;;;5077139;28;20063;-83
2022/08/01 14:56:05;;;;;;;0.30;0.30;;;;;;;;;;5082054;28;20031;-83
2022/08/01 14:58:30;;;;;;;30.55;13.05;;;;;;;;;;5071304;28;20442;-82